createdAt,value
2022-09-01T00:02:04.021Z,54.09
2022-09-01T00:05:44.564Z,54.35
2022-09-01T00:09:31.426Z,54.93
2022-09-01T00:13:21.852Z,54.97
2022-09-01T00:17:09.497Z,54.61
2022-09-01T00:20:57.784Z,54.38
2022-09-01T00:24:46.414Z,54.18
2022-09-01T00:28:34.082Z,54.06
2022-09-01T00:32:22.181Z,53.68
2022-09-01T00:36:10.680Z,54.42
2022-09-01T00:39:58.658Z,54.91
2022-09-01T00:43:52.491Z,55.86
2022-09-01T00:47:44.924Z,56.15
2022-09-01T00:51:32.970Z,56.25
2022-09-01T00:55:20.714Z,56.00
2022-09-01T00:59:08.135Z,56.49
2022-09-01T01:02:55.957Z,56.26
2022-09-01T01:06:36.941Z,56.59
2022-09-01T01:10:24.672Z,57.28
2022-09-01T01:14:12.604Z,57.68
2022-09-01T01:18:00.003Z,58.01
2022-09-01T01:21:45.835Z,57.84
2022-09-01T01:25:33.382Z,58.05
2022-09-01T01:29:20.438Z,58.32
2022-09-01T01:33:08.470Z,58.23
2022-09-01T01:36:54.795Z,58.41
2022-09-01T01:40:43.050Z,58.51
2022-09-01T01:44:31.192Z,58.03
2022-09-01T01:48:18.742Z,58.44
2022-09-01T01:52:08.214Z,58.21
2022-09-01T01:55:44.751Z,58.47
2022-09-01T01:59:32.244Z,58.34
2022-09-01T02:03:19.914Z,58.25
2022-09-01T02:07:09.526Z,57.80
2022-09-01T02:10:57.308Z,57.13
2022-09-01T02:14:45.263Z,57.46
2022-09-01T02:18:33.034Z,58.05
2022-09-01T02:22:20.642Z,57.97
2022-09-01T02:26:16.864Z,58.79
2022-09-01T02:30:04.876Z,58.43
2022-09-01T02:33:52.638Z,57.96
2022-09-01T02:37:44.061Z,57.79
2022-09-01T02:41:31.945Z,56.13
2022-09-01T02:45:20.011Z,56.30
2022-09-01T02:49:08.057Z,56.76
2022-09-01T02:52:55.620Z,56.79
2022-09-01T02:56:43.536Z,57.31
2022-09-01T03:00:31.309Z,59.41
2022-09-01T03:04:19.076Z,58.45
2022-09-01T03:08:07.865Z,58.58
2022-09-01T03:11:55.479Z,59.28
2022-09-01T03:15:43.119Z,57.89
2022-09-01T03:19:30.743Z,56.56
2022-09-01T03:23:19.415Z,55.78
2022-09-01T03:27:07.566Z,55.83
2022-09-01T03:30:55.255Z,55.06
2022-09-01T03:34:43.013Z,55.30
2022-09-01T03:38:32.728Z,55.11
2022-09-01T03:42:20.054Z,55.03
2022-09-01T03:46:07.954Z,55.48
2022-09-01T03:49:47.783Z,56.09
2022-09-01T03:53:15.398Z,56.10
2022-09-01T03:57:03.538Z,55.88
2022-09-01T04:00:51.563Z,56.42
2022-09-01T04:04:20.338Z,58.28
2022-09-01T04:08:07.896Z,59.39
2022-09-01T04:11:58.576Z,60.03
2022-09-01T04:15:46.572Z,60.17
2022-09-01T04:19:40.566Z,60.06
2022-09-01T04:23:31.326Z,60.58
2022-09-01T04:27:18.891Z,60.32
2022-09-01T04:31:07.258Z,61.06
2022-09-01T04:34:58.631Z,59.76
2022-09-01T04:38:46.404Z,59.19
2022-09-01T04:42:35.153Z,59.88
2022-09-01T04:46:24.856Z,62.23
2022-09-01T04:50:13.144Z,62.82
2022-09-01T04:54:03.807Z,62.83
2022-09-01T04:57:52.106Z,62.13
2022-09-01T05:01:39.949Z,62.08
2022-09-01T05:05:27.652Z,61.73
2022-09-01T05:09:15.009Z,61.40
2022-09-01T05:13:06.504Z,61.32
2022-09-01T05:16:57.166Z,61.12
2022-09-01T05:20:42.709Z,62.27
2022-09-01T05:24:23.191Z,61.84
2022-09-01T05:28:11.168Z,62.67
2022-09-01T05:31:58.864Z,62.65
2022-09-01T05:35:46.564Z,63.84
2022-09-01T05:39:34.343Z,62.96
2022-09-01T05:43:21.874Z,62.85
2022-09-01T05:47:10.260Z,62.98
2022-09-01T05:51:22.381Z,61.95
2022-09-01T05:55:15.451Z,61.26
2022-09-01T06:03:08.276Z,60.64
2022-09-01T06:07:06.973Z,60.53
2022-09-01T06:10:55.732Z,59.38
2022-09-01T06:14:43.188Z,59.26
2022-09-01T06:18:30.767Z,58.90
2022-09-01T06:22:18.435Z,58.48
2022-09-01T06:26:07.753Z,57.73
2022-09-01T06:30:00.939Z,56.57
2022-09-01T06:33:48.466Z,55.73
2022-09-01T06:37:39.590Z,54.84
2022-09-01T06:41:28.185Z,54.31
2022-09-01T06:45:15.970Z,53.68
2022-09-01T06:49:06.897Z,53.28
2022-09-01T06:58:03.554Z,53.54
2022-09-01T07:01:11.381Z,52.94
2022-09-01T07:05:02.336Z,53.00
2022-09-01T07:13:05.546Z,48.59
2022-09-01T07:17:23.142Z,46.53
2022-09-01T07:21:36.320Z,44.44
2022-09-01T07:25:14.432Z,42.94
2022-09-01T07:29:11.318Z,44.04
2022-09-01T07:33:41.690Z,44.15
2022-09-01T07:38:47.114Z,44.67
2022-09-01T07:45:29.145Z,42.37
2022-09-01T07:49:51.340Z,42.40
2022-09-01T07:53:28.395Z,42.22
2022-09-01T07:57:16.491Z,41.07
2022-09-01T08:01:05.286Z,40.79
2022-09-01T08:04:56.653Z,40.78
2022-09-01T08:08:45.352Z,40.11
2022-09-01T08:12:34.534Z,40.80
2022-09-01T08:16:24.124Z,39.86
2022-09-01T08:20:14.207Z,40.03
2022-09-01T08:24:14.501Z,40.39
2022-09-01T08:28:04.129Z,41.52
2022-09-01T08:31:52.949Z,38.80
2022-09-01T08:35:40.997Z,38.95
2022-09-01T08:39:28.976Z,40.43
2022-09-01T08:43:32.770Z,41.77
2022-09-01T08:47:28.721Z,40.15
2022-09-01T08:51:20.587Z,40.00
2022-09-01T08:55:49.458Z,38.56
2022-09-01T08:59:37.217Z,38.76
2022-09-01T09:03:52.900Z,39.94
2022-09-01T09:07:53.802Z,39.52
2022-09-01T09:11:54.088Z,38.56
2022-09-01T09:15:42.255Z,40.77
2022-09-01T09:19:33.269Z,41.85
2022-09-01T09:23:21.622Z,40.20
2022-09-01T09:27:11.100Z,40.53
2022-09-01T09:31:04.477Z,39.24
2022-09-01T09:35:07.818Z,38.69
2022-09-01T09:38:56.131Z,39.97
2022-09-01T09:42:44.434Z,38.24
2022-09-01T09:46:33.458Z,37.10
2022-09-01T09:50:24.175Z,36.18
2022-09-01T09:54:14.868Z,37.55
2022-09-01T09:58:05.925Z,38.43
2022-09-01T10:02:00.524Z,39.16
2022-09-01T10:06:08.622Z,37.57
2022-09-01T10:09:56.582Z,37.07
2022-09-01T10:13:44.677Z,36.03
2022-09-01T10:17:34.288Z,35.19
2022-09-01T10:21:26.626Z,34.42
2022-09-01T10:25:17.434Z,34.76
2022-09-01T10:29:06.101Z,33.18
2022-09-01T10:33:01.493Z,32.12
2022-09-01T10:36:58.994Z,33.25
2022-09-01T10:40:52.445Z,33.19
2022-09-01T10:49:27.803Z,31.73
2022-09-01T10:53:17.308Z,31.50
2022-09-01T10:57:12.275Z,32.05
2022-09-01T11:01:21.579Z,32.06
2022-09-01T11:05:10.763Z,31.48
2022-09-01T11:09:08.512Z,30.27
2022-09-01T11:13:18.340Z,30.27
2022-09-01T11:17:18.338Z,30.13
2022-09-01T11:21:07.975Z,30.63
2022-09-01T11:25:00.212Z,32.01
2022-09-01T11:29:08.454Z,31.07
2022-09-01T11:32:56.208Z,29.77
2022-09-01T11:36:44.454Z,30.50
2022-09-01T11:40:47.574Z,31.92
2022-09-01T11:44:35.794Z,32.03
2022-09-01T11:48:26.827Z,32.22
2022-09-01T11:52:23.522Z,32.84
2022-09-01T11:56:11.861Z,33.22
2022-09-01T12:00:12.076Z,33.35
2022-09-01T12:04:01.136Z,33.35
2022-09-01T12:07:54.857Z,33.10
2022-09-01T12:11:43.148Z,32.55
2022-09-01T12:15:43.411Z,33.79
2022-09-01T12:19:46.436Z,32.41
2022-09-01T12:23:36.796Z,30.93
2022-09-01T12:27:24.546Z,31.33
2022-09-01T12:31:12.772Z,30.86
2022-09-01T12:35:13.080Z,33.29
2022-09-01T12:39:18.959Z,34.49
2022-09-01T12:43:07.892Z,34.63
2022-09-01T12:46:56.881Z,34.64
2022-09-01T12:50:45.817Z,33.90
2022-09-01T12:54:33.904Z,33.43
2022-09-01T12:58:35.400Z,33.50
2022-09-01T13:02:26.988Z,33.23
2022-09-01T13:06:21.272Z,33.87
2022-09-01T13:10:10.043Z,34.47
2022-09-01T13:13:58.481Z,35.63
2022-09-01T13:17:46.839Z,34.95
2022-09-01T13:21:35.238Z,34.00
2022-09-01T13:25:23.194Z,34.51
2022-09-01T13:29:19.353Z,34.49
2022-09-01T13:33:23.474Z,34.49
2022-09-01T13:37:20.051Z,33.98
2022-09-01T13:41:08.417Z,33.88
2022-09-01T13:44:57.029Z,33.06
2022-09-01T13:52:55.378Z,33.25
2022-09-01T13:56:43.888Z,32.21
2022-09-01T14:00:34.806Z,32.72
2022-09-01T14:04:23.324Z,32.81
2022-09-01T14:08:12.292Z,34.65
2022-09-01T14:12:17.223Z,33.45
2022-09-01T14:16:06.439Z,33.88
2022-09-01T14:19:59.086Z,34.51
2022-09-01T14:23:49.568Z,34.46
2022-09-01T14:27:39.395Z,34.46
2022-09-01T14:31:30.982Z,33.65
2022-09-01T14:35:18.897Z,33.94
2022-09-01T14:39:11.382Z,34.27
2022-09-01T14:47:19.254Z,35.12
2022-09-01T14:55:29.672Z,35.18
2022-09-01T14:59:20.330Z,35.88
2022-09-01T15:03:10.357Z,35.71
2022-09-01T15:06:58.265Z,36.49
2022-09-01T15:10:51.893Z,36.27
2022-09-01T15:14:39.844Z,36.70
2022-09-01T15:18:29.163Z,37.48
2022-09-01T15:22:19.824Z,37.20
2022-09-01T15:26:19.664Z,36.73
2022-09-01T15:30:07.511Z,37.44
2022-09-01T15:33:55.885Z,37.68
2022-09-01T15:37:46.211Z,37.88
2022-09-01T15:41:36.554Z,37.74
2022-09-01T15:45:25.685Z,37.90
2022-09-01T15:49:13.564Z,37.97
2022-09-01T15:53:01.410Z,38.21
2022-09-01T15:56:49.379Z,37.73
2022-09-01T16:00:37.808Z,38.19
2022-09-01T16:04:33.663Z,38.62
2022-09-01T16:08:21.864Z,38.06
2022-09-01T16:12:09.956Z,37.61
2022-09-01T16:15:57.915Z,37.55
2022-09-01T16:19:54.171Z,37.43
2022-09-01T16:23:45.059Z,37.70
2022-09-01T16:27:33.526Z,37.54
2022-09-01T16:31:21.714Z,38.00
2022-09-01T16:39:26.763Z,37.81
2022-09-01T16:43:32.932Z,37.98
2022-09-01T16:47:20.927Z,38.55
2022-09-01T16:51:10.480Z,38.35
2022-09-01T16:55:07.065Z,38.83
2022-09-01T16:59:07.081Z,38.64
2022-09-01T17:03:06.829Z,39.16
2022-09-01T17:06:54.887Z,39.19
2022-09-01T17:10:43.485Z,39.50
2022-09-01T17:14:41.034Z,39.40
2022-09-01T17:18:52.425Z,39.38
2022-09-01T17:22:43.759Z,39.66
2022-09-01T17:26:36.654Z,39.70
2022-09-01T17:30:27.584Z,39.41
2022-09-01T17:34:18.167Z,39.40
2022-09-01T17:38:05.991Z,39.70
2022-09-01T17:41:50.847Z,40.46
2022-09-01T17:45:38.963Z,40.47
2022-09-01T17:49:37.712Z,40.47
2022-09-01T17:53:31.926Z,40.90
2022-09-01T17:57:33.448Z,41.06
2022-09-01T18:01:20.489Z,40.69
2022-09-01T18:05:09.110Z,40.74
2022-09-01T18:09:21.412Z,41.23
2022-09-01T18:13:10.409Z,41.70
2022-09-01T18:17:00.239Z,41.47
2022-09-01T18:20:52.498Z,42.02
2022-09-01T18:25:00.126Z,42.52
2022-09-01T18:28:49.375Z,42.99
2022-09-01T18:32:49.303Z,43.50
2022-09-01T18:36:49.252Z,44.03
2022-09-01T18:40:42.988Z,44.02
2022-09-01T18:44:43.101Z,44.11
2022-09-01T18:48:31.447Z,44.25
2022-09-01T18:52:21.457Z,44.40
2022-09-01T18:56:37.576Z,44.66
2022-09-01T19:00:33.067Z,44.76
2022-09-01T19:04:29.069Z,44.87
2022-09-01T19:08:20.544Z,44.96
2022-09-01T19:12:25.774Z,44.85
2022-09-01T19:16:24.774Z,44.37
2022-09-01T19:20:28.628Z,44.65
2022-09-01T19:24:28.943Z,44.51
2022-09-01T19:28:18.186Z,44.52
2022-09-01T19:32:09.313Z,44.47
2022-09-01T19:35:58.030Z,44.70
2022-09-01T19:39:49.775Z,45.29
2022-09-01T19:43:43.720Z,44.96
2022-09-01T19:47:36.686Z,44.84
2022-09-01T19:51:24.706Z,45.03
2022-09-01T19:55:13.739Z,45.30
2022-09-01T19:59:08.060Z,45.33
2022-09-01T20:02:56.632Z,45.99
2022-09-01T20:06:54.321Z,45.57
2022-09-01T20:10:55.267Z,46.11
2022-09-01T20:14:46.510Z,46.33
2022-09-01T20:18:37.827Z,46.40
2022-09-01T20:22:30.635Z,47.00
2022-09-01T20:26:26.684Z,48.00
2022-09-01T20:30:30.809Z,48.16
2022-09-01T20:34:19.382Z,48.46
2022-09-01T20:38:18.952Z,48.15
2022-09-01T20:42:09.580Z,48.92
2022-09-01T20:46:00.719Z,49.29
2022-09-01T20:49:49.537Z,49.56
2022-09-01T20:54:08.814Z,49.94
2022-09-01T20:58:24.546Z,50.07
2022-09-01T21:02:17.448Z,50.06
2022-09-01T21:06:05.390Z,49.51
2022-09-01T21:09:55.611Z,49.67
2022-09-01T21:13:43.418Z,49.57
2022-09-01T21:17:43.555Z,48.67
2022-09-01T21:21:40.297Z,48.25
2022-09-01T21:25:27.833Z,48.28
2022-09-01T21:29:15.693Z,48.74
2022-09-01T21:33:03.567Z,49.18
2022-09-01T21:36:51.585Z,49.46
2022-09-01T21:40:43.622Z,49.14
2022-09-01T21:44:34.485Z,49.20
2022-09-01T21:48:22.506Z,48.75
2022-09-01T21:52:10.164Z,48.57
2022-09-01T21:55:57.836Z,48.79
2022-09-01T21:59:45.585Z,49.47
2022-09-01T22:03:33.312Z,49.47
2022-09-01T22:07:20.987Z,48.64
2022-09-01T22:11:08.842Z,48.00
2022-09-01T22:14:56.489Z,47.80
2022-09-01T22:18:44.996Z,48.77
2022-09-01T22:22:32.620Z,49.37
2022-09-01T22:26:20.203Z,50.17
2022-09-01T22:30:08.030Z,50.34
2022-09-01T22:33:56.139Z,50.89
2022-09-01T22:37:43.932Z,51.50
2022-09-01T22:41:32.036Z,51.76
2022-09-01T22:45:19.589Z,51.91
2022-09-01T22:49:07.353Z,52.12
2022-09-01T22:52:55.351Z,51.93
2022-09-01T22:56:43.214Z,51.60
2022-09-01T23:00:30.811Z,51.69
2022-09-01T23:04:18.675Z,51.66
2022-09-01T23:08:06.422Z,51.28
2022-09-01T23:11:54.060Z,51.02
2022-09-01T23:15:41.536Z,51.32
2022-09-01T23:19:28.968Z,51.68
2022-09-01T23:23:16.749Z,52.00
2022-09-01T23:27:04.408Z,52.65
2022-09-01T23:30:52.345Z,53.21
2022-09-01T23:34:40.379Z,53.68
2022-09-01T23:38:28.264Z,53.54
2022-09-01T23:42:15.531Z,53.23
2022-09-01T23:46:03.262Z,52.93
2022-09-01T23:49:52.618Z,53.04
2022-09-01T23:53:41.121Z,53.54
2022-09-01T23:57:29.065Z,54.14
